sensor_id;sensor_type;location;lat;lon;timestamp;P1;durP1;ratioP1;P2;durP2;ratioP2
41253;SDS011;26987;59.928;30.306;2023-07-13T00:00:59;18.15;;;2.38;;
41253;SDS011;26987;59.928;30.306;2023-07-13T00:03:27;10.60;;;2.65;;
41253;SDS011;26987;59.928;30.306;2023-07-13T00:06:01;17.35;;;2.28;;
41253;SDS011;26987;59.928;30.306;2023-07-13T00:08:30;13.77;;;2.42;;
41253;SDS011;26987;59.928;30.306;2023-07-13T00:11:00;11.52;;;2.95;;
41253;SDS011;26987;59.928;30.306;2023-07-13T00:13:27;12.77;;;3.28;;
41253;SDS011;26987;59.928;30.306;2023-07-13T00:15:58;7.28;;;2.35;;
41253;SDS011;26987;59.928;30.306;2023-07-13T00:18:27;4.72;;;2.03;;
41253;SDS011;26987;59.928;30.306;2023-07-13T00:20:56;8.02;;;2.35;;
41253;SDS011;26987;59.928;30.306;2023-07-13T00:23:30;4.13;;;1.73;;
41253;SDS011;26987;59.928;30.306;2023-07-13T00:25:59;9.55;;;2.10;;
41253;SDS011;26987;59.928;30.306;2023-07-13T00:28:28;4.63;;;1.70;;
41253;SDS011;26987;59.928;30.306;2023-07-13T00:30:56;5.82;;;2.08;;
41253;SDS011;26987;59.928;30.306;2023-07-13T00:33:26;5.03;;;1.85;;
41253;SDS011;26987;59.928;30.306;2023-07-13T00:35:56;6.55;;;2.20;;
41253;SDS011;26987;59.928;30.306;2023-07-13T00:38:26;9.85;;;1.98;;
41253;SDS011;26987;59.928;30.306;2023-07-13T00:40:54;6.75;;;2.00;;
41253;SDS011;26987;59.928;30.306;2023-07-13T00:43:24;3.40;;;1.63;;
41253;SDS011;26987;59.928;30.306;2023-07-13T00:48:49;8.85;;;2.22;;
41253;SDS011;26987;59.928;30.306;2023-07-13T00:51:21;7.22;;;2.08;;
41253;SDS011;26987;59.928;30.306;2023-07-13T00:53:53;8.10;;;2.00;;
41253;SDS011;26987;59.928;30.306;2023-07-13T00:56:24;12.02;;;2.55;;
41253;SDS011;26987;59.928;30.306;2023-07-13T00:58:52;6.22;;;2.10;;
41253;SDS011;26987;59.928;30.306;2023-07-13T01:01:22;5.95;;;2.33;;
41253;SDS011;26987;59.928;30.306;2023-07-13T01:03:50;2.53;;;1.70;;
41253;SDS011;26987;59.928;30.306;2023-07-13T01:06:20;5.65;;;2.42;;
41253;SDS011;26987;59.928;30.306;2023-07-13T01:08:48;6.03;;;2.22;;
41253;SDS011;26987;59.928;30.306;2023-07-13T01:11:18;3.55;;;1.75;;
41253;SDS011;26987;59.928;30.306;2023-07-13T01:13:48;10.45;;;2.67;;
41253;SDS011;26987;59.928;30.306;2023-07-13T01:16:18;5.97;;;2.10;;
41253;SDS011;26987;59.928;30.306;2023-07-13T01:18:52;2.70;;;1.50;;
41253;SDS011;26987;59.928;30.306;2023-07-13T01:21:26;6.35;;;1.65;;
41253;SDS011;26987;59.928;30.306;2023-07-13T01:23:54;5.38;;;2.15;;
41253;SDS011;26987;59.928;30.306;2023-07-13T01:26:22;4.53;;;1.70;;
41253;SDS011;26987;59.928;30.306;2023-07-13T01:28:50;3.85;;;1.90;;
41253;SDS011;26987;59.928;30.306;2023-07-13T01:31:18;6.22;;;2.22;;
41253;SDS011;26987;59.928;30.306;2023-07-13T01:33:46;3.78;;;1.85;;
41253;SDS011;26987;59.928;30.306;2023-07-13T01:36:14;4.60;;;2.17;;
41253;SDS011;26987;59.928;30.306;2023-07-13T01:38:44;7.05;;;2.00;;
41253;SDS011;26987;59.928;30.306;2023-07-13T01:41:12;2.67;;;1.70;;
41253;SDS011;26987;59.928;30.306;2023-07-13T01:43:40;6.05;;;1.95;;
41253;SDS011;26987;59.928;30.306;2023-07-13T01:46:08;4.30;;;2.28;;
41253;SDS011;26987;59.928;30.306;2023-07-13T01:48:35;2.90;;;1.67;;
41253;SDS011;26987;59.928;30.306;2023-07-13T01:51:03;10.60;;;2.20;;
41253;SDS011;26987;59.928;30.306;2023-07-13T01:53:31;5.97;;;1.80;;
41253;SDS011;26987;59.928;30.306;2023-07-13T01:56:03;5.28;;;1.95;;
41253;SDS011;26987;59.928;30.306;2023-07-13T01:58:31;8.93;;;1.75;;
41253;SDS011;26987;59.928;30.306;2023-07-13T02:00:59;6.88;;;2.05;;
41253;SDS011;26987;59.928;30.306;2023-07-13T02:03:28;5.05;;;2.20;;
41253;SDS011;26987;59.928;30.306;2023-07-13T02:05:58;3.72;;;2.10;;
41253;SDS011;26987;59.928;30.306;2023-07-13T02:08:26;5.38;;;2.22;;
41253;SDS011;26987;59.928;30.306;2023-07-13T02:10:54;5.70;;;1.95;;
41253;SDS011;26987;59.928;30.306;2023-07-13T02:13:23;5.65;;;2.10;;
41253;SDS011;26987;59.928;30.306;2023-07-13T02:15:52;9.63;;;2.22;;
41253;SDS011;26987;59.928;30.306;2023-07-13T02:18:20;4.93;;;1.80;;
41253;SDS011;26987;59.928;30.306;2023-07-13T02:20:48;5.13;;;1.65;;
41253;SDS011;26987;59.928;30.306;2023-07-13T02:23:16;6.07;;;2.30;;
41253;SDS011;26987;59.928;30.306;2023-07-13T02:25:46;16.30;;;2.00;;
41253;SDS011;26987;59.928;30.306;2023-07-13T02:28:15;5.38;;;1.88;;
41253;SDS011;26987;59.928;30.306;2023-07-13T02:30:44;4.07;;;2.35;;
41253;SDS011;26987;59.928;30.306;2023-07-13T02:33:12;4.13;;;2.15;;
41253;SDS011;26987;59.928;30.306;2023-07-13T02:35:40;6.30;;;2.35;;
41253;SDS011;26987;59.928;30.306;2023-07-13T02:38:08;11.32;;;2.33;;
41253;SDS011;26987;59.928;30.306;2023-07-13T02:40:36;6.68;;;1.90;;
41253;SDS011;26987;59.928;30.306;2023-07-13T02:43:04;3.47;;;2.05;;
41253;SDS011;26987;59.928;30.306;2023-07-13T02:45:32;9.73;;;1.65;;
41253;SDS011;26987;59.928;30.306;2023-07-13T02:48:02;4.43;;;2.08;;
41253;SDS011;26987;59.928;30.306;2023-07-13T02:50:30;5.82;;;1.60;;
41253;SDS011;26987;59.928;30.306;2023-07-13T02:52:58;5.38;;;2.05;;
41253;SDS011;26987;59.928;30.306;2023-07-13T02:55:26;6.55;;;2.00;;
41253;SDS011;26987;59.928;30.306;2023-07-13T02:57:54;2.47;;;1.48;;
41253;SDS011;26987;59.928;30.306;2023-07-13T03:00:23;2.55;;;1.60;;
41253;SDS011;26987;59.928;30.306;2023-07-13T03:02:51;3.55;;;2.08;;
41253;SDS011;26987;59.928;30.306;2023-07-13T03:05:21;4.65;;;1.75;;
41253;SDS011;26987;59.928;30.306;2023-07-13T03:07:49;3.70;;;1.58;;
41253;SDS011;26987;59.928;30.306;2023-07-13T03:10:18;4.35;;;2.08;;
41253;SDS011;26987;59.928;30.306;2023-07-13T03:12:49;3.78;;;2.00;;
41253;SDS011;26987;59.928;30.306;2023-07-13T03:15:23;7.00;;;2.00;;
41253;SDS011;26987;59.928;30.306;2023-07-13T03:17:54;2.80;;;1.70;;
41253;SDS011;26987;59.928;30.306;2023-07-13T03:20:23;5.05;;;2.30;;
41253;SDS011;26987;59.928;30.306;2023-07-13T03:22:51;6.35;;;2.47;;
41253;SDS011;26987;59.928;30.306;2023-07-13T03:25:19;5.97;;;2.35;;
41253;SDS011;26987;59.928;30.306;2023-07-13T03:27:49;5.63;;;2.40;;
41253;SDS011;26987;59.928;30.306;2023-07-13T03:30:17;9.95;;;3.13;;
41253;SDS011;26987;59.928;30.306;2023-07-13T03:32:44;7.45;;;2.03;;
41253;SDS011;26987;59.928;30.306;2023-07-13T03:35:12;4.38;;;2.22;;
41253;SDS011;26987;59.928;30.306;2023-07-13T03:37:42;5.75;;;2.63;;
41253;SDS011;26987;59.928;30.306;2023-07-13T03:40:14;4.82;;;2.53;;
41253;SDS011;26987;59.928;30.306;2023-07-13T03:42:44;6.28;;;2.17;;
41253;SDS011;26987;59.928;30.306;2023-07-13T03:45:15;20.02;;;2.47;;
41253;SDS011;26987;59.928;30.306;2023-07-13T03:47:43;3.28;;;1.88;;
41253;SDS011;26987;59.928;30.306;2023-07-13T03:50:11;4.32;;;1.42;;
41253;SDS011;26987;59.928;30.306;2023-07-13T03:52:42;3.53;;;1.67;;
41253;SDS011;26987;59.928;30.306;2023-07-13T03:55:15;4.70;;;1.45;;
41253;SDS011;26987;59.928;30.306;2023-07-13T03:57:44;3.05;;;1.40;;
41253;SDS011;26987;59.928;30.306;2023-07-13T04:00:13;3.90;;;1.30;;
41253;SDS011;26987;59.928;30.306;2023-07-13T04:02:44;2.88;;;1.73;;
41253;SDS011;26987;59.928;30.306;2023-07-13T04:05:14;4.90;;;1.85;;
41253;SDS011;26987;59.928;30.306;2023-07-13T04:07:46;4.20;;;1.77;;
41253;SDS011;26987;59.928;30.306;2023-07-13T04:10:14;3.15;;;1.27;;
41253;SDS011;26987;59.928;30.306;2023-07-13T04:12:42;3.60;;;1.27;;
41253;SDS011;26987;59.928;30.306;2023-07-13T04:15:10;3.33;;;1.30;;
41253;SDS011;26987;59.928;30.306;2023-07-13T04:17:38;4.07;;;1.58;;
41253;SDS011;26987;59.928;30.306;2023-07-13T04:20:06;2.22;;;1.27;;
41253;SDS011;26987;59.928;30.306;2023-07-13T04:22:34;2.33;;;1.20;;
41253;SDS011;26987;59.928;30.306;2023-07-13T04:25:04;4.40;;;1.95;;
41253;SDS011;26987;59.928;30.306;2023-07-13T04:27:33;3.97;;;1.83;;
41253;SDS011;26987;59.928;30.306;2023-07-13T04:30:01;4.40;;;1.42;;
41253;SDS011;26987;59.928;30.306;2023-07-13T04:32:28;3.42;;;1.80;;
41253;SDS011;26987;59.928;30.306;2023-07-13T04:34:56;2.55;;;1.20;;
41253;SDS011;26987;59.928;30.306;2023-07-13T04:37:25;3.78;;;1.52;;
41253;SDS011;26987;59.928;30.306;2023-07-13T04:39:55;2.00;;;1.20;;
41253;SDS011;26987;59.928;30.306;2023-07-13T04:42:24;1.63;;;1.02;;
41253;SDS011;26987;59.928;30.306;2023-07-13T04:44:52;3.03;;;1.13;;
41253;SDS011;26987;59.928;30.306;2023-07-13T04:47:20;3.47;;;1.35;;
41253;SDS011;26987;59.928;30.306;2023-07-13T04:49:49;4.85;;;1.50;;
41253;SDS011;26987;59.928;30.306;2023-07-13T04:52:16;1.65;;;1.02;;
41253;SDS011;26987;59.928;30.306;2023-07-13T04:54:44;3.58;;;1.20;;
41253;SDS011;26987;59.928;30.306;2023-07-13T04:57:12;2.00;;;1.20;;
41253;SDS011;26987;59.928;30.306;2023-07-13T04:59:42;3.05;;;1.10;;
41253;SDS011;26987;59.928;30.306;2023-07-13T05:02:10;2.08;;;1.13;;
41253;SDS011;26987;59.928;30.306;2023-07-13T05:04:38;4.70;;;1.20;;
41253;SDS011;26987;59.928;30.306;2023-07-13T05:07:06;2.35;;;0.90;;
41253;SDS011;26987;59.928;30.306;2023-07-13T05:09:34;2.00;;;1.20;;
41253;SDS011;26987;59.928;30.306;2023-07-13T05:12:02;2.53;;;1.20;;
41253;SDS011;26987;59.928;30.306;2023-07-13T05:14:30;2.65;;;0.90;;
41253;SDS011;26987;59.928;30.306;2023-07-13T05:16:59;1.73;;;0.80;;
41253;SDS011;26987;59.928;30.306;2023-07-13T05:19:27;2.20;;;1.20;;
41253;SDS011;26987;59.928;30.306;2023-07-13T05:21:55;4.43;;;1.10;;
41253;SDS011;26987;59.928;30.306;2023-07-13T05:24:23;2.47;;;1.15;;
41253;SDS011;26987;59.928;30.306;2023-07-13T05:26:51;4.70;;;1.20;;
41253;SDS011;26987;59.928;30.306;2023-07-13T05:29:20;1.75;;;1.15;;
41253;SDS011;26987;59.928;30.306;2023-07-13T05:31:48;3.30;;;1.45;;
41253;SDS011;26987;59.928;30.306;2023-07-13T05:34:18;3.92;;;1.60;;
41253;SDS011;26987;59.928;30.306;2023-07-13T05:36:46;3.75;;;1.40;;
41253;SDS011;26987;59.928;30.306;2023-07-13T05:39:14;2.35;;;1.33;;
41253;SDS011;26987;59.928;30.306;2023-07-13T05:41:42;5.60;;;1.10;;
41253;SDS011;26987;59.928;30.306;2023-07-13T05:44:10;4.22;;;0.93;;
41253;SDS011;26987;59.928;30.306;2023-07-13T05:46:38;5.65;;;1.15;;
41253;SDS011;26987;59.928;30.306;2023-07-13T05:49:06;1.75;;;1.02;;
41253;SDS011;26987;59.928;30.306;2023-07-13T05:51:35;4.22;;;1.10;;
41253;SDS011;26987;59.928;30.306;2023-07-13T05:54:03;5.85;;;1.20;;
41253;SDS011;26987;59.928;30.306;2023-07-13T05:56:31;8.18;;;1.50;;
41253;SDS011;26987;59.928;30.306;2023-07-13T05:58:59;4.60;;;1.70;;
41253;SDS011;26987;59.928;30.306;2023-07-13T06:01:27;3.67;;;1.88;;
41253;SDS011;26987;59.928;30.306;2023-07-13T06:03:57;4.53;;;1.50;;
41253;SDS011;26987;59.928;30.306;2023-07-13T06:06:25;4.45;;;1.30;;
41253;SDS011;26987;59.928;30.306;2023-07-13T06:08:54;1.63;;;1.20;;
41253;SDS011;26987;59.928;30.306;2023-07-13T06:11:23;2.65;;;1.27;;
41253;SDS011;26987;59.928;30.306;2023-07-13T06:13:52;5.03;;;1.40;;
41253;SDS011;26987;59.928;30.306;2023-07-13T06:16:20;1.85;;;1.08;;
41253;SDS011;26987;59.928;30.306;2023-07-13T06:18:48;4.00;;;1.30;;
41253;SDS011;26987;59.928;30.306;2023-07-13T06:21:17;8.40;;;1.30;;
41253;SDS011;26987;59.928;30.306;2023-07-13T06:23:46;4.00;;;1.13;;
41253;SDS011;26987;59.928;30.306;2023-07-13T06:26:17;4.40;;;1.42;;
41253;SDS011;26987;59.928;30.306;2023-07-13T06:28:46;3.80;;;1.88;;
41253;SDS011;26987;59.928;30.306;2023-07-13T06:31:14;7.45;;;1.83;;
41253;SDS011;26987;59.928;30.306;2023-07-13T06:33:43;4.35;;;1.73;;
41253;SDS011;26987;59.928;30.306;2023-07-13T06:36:11;5.93;;;1.77;;
41253;SDS011;26987;59.928;30.306;2023-07-13T06:38:39;7.57;;;1.85;;
41253;SDS011;26987;59.928;30.306;2023-07-13T06:41:07;7.15;;;1.92;;
41253;SDS011;26987;59.928;30.306;2023-07-13T06:43:37;8.48;;;2.65;;
41253;SDS011;26987;59.928;30.306;2023-07-13T06:46:05;12.10;;;2.60;;
41253;SDS011;26987;59.928;30.306;2023-07-13T06:48:33;6.82;;;1.80;;
41253;SDS011;26987;59.928;30.306;2023-07-13T06:51:02;3.65;;;1.42;;
41253;SDS011;26987;59.928;30.306;2023-07-13T06:53:30;6.18;;;1.48;;
41253;SDS011;26987;59.928;30.306;2023-07-13T06:55:58;6.13;;;1.83;;
41253;SDS011;26987;59.928;30.306;2023-07-13T06:58:26;5.10;;;1.70;;
41253;SDS011;26987;59.928;30.306;2023-07-13T07:00:55;5.05;;;1.80;;
41253;SDS011;26987;59.928;30.306;2023-07-13T07:03:23;3.55;;;1.42;;
41253;SDS011;26987;59.928;30.306;2023-07-13T07:05:51;10.30;;;2.03;;
41253;SDS011;26987;59.928;30.306;2023-07-13T07:08:19;4.15;;;1.23;;
41253;SDS011;26987;59.928;30.306;2023-07-13T07:10:47;2.88;;;1.25;;
41253;SDS011;26987;59.928;30.306;2023-07-13T07:13:19;11.18;;;1.85;;
41253;SDS011;26987;59.928;30.306;2023-07-13T07:15:48;8.02;;;1.65;;
41253;SDS011;26987;59.928;30.306;2023-07-13T07:18:18;12.77;;;2.30;;
41253;SDS011;26987;59.928;30.306;2023-07-13T07:20:46;14.95;;;2.08;;
41253;SDS011;26987;59.928;30.306;2023-07-13T07:23:16;8.27;;;1.38;;
41253;SDS011;26987;59.928;30.306;2023-07-13T07:25:44;3.80;;;1.63;;
41253;SDS011;26987;59.928;30.306;2023-07-13T07:28:14;2.30;;;1.42;;
41253;SDS011;26987;59.928;30.306;2023-07-13T07:30:44;2.65;;;1.15;;
41253;SDS011;26987;59.928;30.306;2023-07-13T07:33:12;9.25;;;2.05;;
41253;SDS011;26987;59.928;30.306;2023-07-13T07:35:42;14.32;;;2.17;;
41253;SDS011;26987;59.928;30.306;2023-07-13T07:38:10;9.07;;;2.25;;
41253;SDS011;26987;59.928;30.306;2023-07-13T07:40:38;6.90;;;2.35;;
41253;SDS011;26987;59.928;30.306;2023-07-13T07:43:08;10.20;;;2.35;;
41253;SDS011;26987;59.928;30.306;2023-07-13T07:45:36;4.72;;;2.00;;
41253;SDS011;26987;59.928;30.306;2023-07-13T07:48:05;6.93;;;1.80;;
41253;SDS011;26987;59.928;30.306;2023-07-13T07:50:35;11.23;;;2.63;;
41253;SDS011;26987;59.928;30.306;2023-07-13T07:53:06;12.02;;;3.00;;
41253;SDS011;26987;59.928;30.306;2023-07-13T07:55:36;4.95;;;1.90;;
41253;SDS011;26987;59.928;30.306;2023-07-13T07:58:04;4.78;;;1.73;;
41253;SDS011;26987;59.928;30.306;2023-07-13T08:00:32;5.63;;;1.80;;
41253;SDS011;26987;59.928;30.306;2023-07-13T08:03:01;3.88;;;1.65;;
41253;SDS011;26987;59.928;30.306;2023-07-13T08:05:29;9.02;;;1.83;;
41253;SDS011;26987;59.928;30.306;2023-07-13T08:07:57;5.55;;;1.55;;
41253;SDS011;26987;59.928;30.306;2023-07-13T08:10:27;5.47;;;1.60;;
41253;SDS011;26987;59.928;30.306;2023-07-13T08:12:55;6.85;;;1.50;;
41253;SDS011;26987;59.928;30.306;2023-07-13T08:15:23;12.57;;;2.00;;
41253;SDS011;26987;59.928;30.306;2023-07-13T08:17:51;9.48;;;2.95;;
41253;SDS011;26987;59.928;30.306;2023-07-13T08:20:19;4.75;;;1.30;;
41253;SDS011;26987;59.928;30.306;2023-07-13T08:22:46;6.18;;;1.60;;
41253;SDS011;26987;59.928;30.306;2023-07-13T08:25:14;7.45;;;1.60;;
41253;SDS011;26987;59.928;30.306;2023-07-13T08:27:44;3.28;;;1.50;;
41253;SDS011;26987;59.928;30.306;2023-07-13T08:30:12;2.97;;;1.30;;
41253;SDS011;26987;59.928;30.306;2023-07-13T08:32:40;7.13;;;1.92;;
41253;SDS011;26987;59.928;30.306;2023-07-13T08:35:08;6.25;;;1.60;;
41253;SDS011;26987;59.928;30.306;2023-07-13T08:37:36;3.60;;;1.45;;
41253;SDS011;26987;59.928;30.306;2023-07-13T08:40:04;4.65;;;1.80;;
41253;SDS011;26987;59.928;30.306;2023-07-13T08:42:35;6.90;;;1.60;;
41253;SDS011;26987;59.928;30.306;2023-07-13T08:45:14;4.03;;;1.40;;
41253;SDS011;26987;59.928;30.306;2023-07-13T08:47:48;2.53;;;0.93;;
41253;SDS011;26987;59.928;30.306;2023-07-13T08:50:21;2.85;;;1.35;;
41253;SDS011;26987;59.928;30.306;2023-07-13T08:52:53;2.28;;;1.30;;
41253;SDS011;26987;59.928;30.306;2023-07-13T08:55:25;3.03;;;1.40;;
41253;SDS011;26987;59.928;30.306;2023-07-13T08:57:59;2.65;;;1.45;;
41253;SDS011;26987;59.928;30.306;2023-07-13T09:00:34;4.03;;;1.52;;
41253;SDS011;26987;59.928;30.306;2023-07-13T09:03:13;8.02;;;2.03;;
41253;SDS011;26987;59.928;30.306;2023-07-13T09:05:48;3.85;;;1.23;;
41253;SDS011;26987;59.928;30.306;2023-07-13T09:08:30;2.75;;;1.30;;
41253;SDS011;26987;59.928;30.306;2023-07-13T09:11:08;6.10;;;1.58;;
41253;SDS011;26987;59.928;30.306;2023-07-13T09:13:48;4.45;;;1.35;;
41253;SDS011;26987;59.928;30.306;2023-07-13T09:16:24;2.25;;;1.23;;
41253;SDS011;26987;59.928;30.306;2023-07-13T09:18:52;5.07;;;1.50;;
41253;SDS011;26987;59.928;30.306;2023-07-13T09:21:29;5.32;;;1.45;;
41253;SDS011;26987;59.928;30.306;2023-07-13T09:24:01;5.93;;;1.55;;
41253;SDS011;26987;59.928;30.306;2023-07-13T09:26:50;3.53;;;1.52;;
41253;SDS011;26987;59.928;30.306;2023-07-13T09:29:20;7.53;;;2.17;;
41253;SDS011;26987;59.928;30.306;2023-07-13T09:31:55;8.13;;;2.42;;
41253;SDS011;26987;59.928;30.306;2023-07-13T09:34:26;10.38;;;2.00;;
41253;SDS011;26987;59.928;30.306;2023-07-13T09:36:55;7.40;;;1.92;;
41253;SDS011;26987;59.928;30.306;2023-07-13T09:39:24;6.88;;;1.95;;
41253;SDS011;26987;59.928;30.306;2023-07-13T09:41:55;6.03;;;2.08;;
41253;SDS011;26987;59.928;30.306;2023-07-13T09:44:28;4.50;;;1.83;;
41253;SDS011;26987;59.928;30.306;2023-07-13T09:47:00;10.25;;;2.20;;
41253;SDS011;26987;59.928;30.306;2023-07-13T09:49:29;9.43;;;2.20;;
41253;SDS011;26987;59.928;30.306;2023-07-13T09:52:06;4.10;;;2.22;;
41253;SDS011;26987;59.928;30.306;2023-07-13T09:54:38;5.22;;;1.70;;
41253;SDS011;26987;59.928;30.306;2023-07-13T09:57:11;6.18;;;2.00;;
41253;SDS011;26987;59.928;30.306;2023-07-13T09:59:43;8.95;;;1.40;;
41253;SDS011;26987;59.928;30.306;2023-07-13T10:02:24;4.88;;;2.03;;
41253;SDS011;26987;59.928;30.306;2023-07-13T10:04:57;4.55;;;1.80;;
41253;SDS011;26987;59.928;30.306;2023-07-13T10:07:27;5.03;;;2.00;;
41253;SDS011;26987;59.928;30.306;2023-07-13T10:09:55;5.18;;;2.22;;
41253;SDS011;26987;59.928;30.306;2023-07-13T10:12:24;3.03;;;1.80;;
41253;SDS011;26987;59.928;30.306;2023-07-13T10:14:54;4.00;;;1.67;;
41253;SDS011;26987;59.928;30.306;2023-07-13T10:17:27;2.60;;;1.70;;
41253;SDS011;26987;59.928;30.306;2023-07-13T10:19:58;2.97;;;1.52;;
41253;SDS011;26987;59.928;30.306;2023-07-13T10:22:33;5.25;;;1.88;;
41253;SDS011;26987;59.928;30.306;2023-07-13T10:25:13;2.47;;;1.23;;
41253;SDS011;26987;59.928;30.306;2023-07-13T10:27:44;5.03;;;1.73;;
41253;SDS011;26987;59.928;30.306;2023-07-13T10:30:14;6.70;;;1.70;;
41253;SDS011;26987;59.928;30.306;2023-07-13T10:32:48;2.92;;;1.50;;
41253;SDS011;26987;59.928;30.306;2023-07-13T10:35:19;6.85;;;1.50;;
41253;SDS011;26987;59.928;30.306;2023-07-13T10:37:51;4.45;;;1.45;;
41253;SDS011;26987;59.928;30.306;2023-07-13T10:40:24;4.18;;;1.40;;
41253;SDS011;26987;59.928;30.306;2023-07-13T10:42:56;5.97;;;1.58;;
41253;SDS011;26987;59.928;30.306;2023-07-13T10:45:28;4.97;;;1.92;;
41253;SDS011;26987;59.928;30.306;2023-07-13T10:48:01;10.20;;;1.70;;
41253;SDS011;26987;59.928;30.306;2023-07-13T10:50:31;3.25;;;1.77;;
41253;SDS011;26987;59.928;30.306;2023-07-13T10:53:01;4.38;;;1.38;;
41253;SDS011;26987;59.928;30.306;2023-07-13T10:55:35;3.15;;;1.52;;
41253;SDS011;26987;59.928;30.306;2023-07-13T10:58:12;3.22;;;2.10;;
41253;SDS011;26987;59.928;30.306;2023-07-13T11:00:49;2.67;;;1.40;;
41253;SDS011;26987;59.928;30.306;2023-07-13T11:03:25;8.02;;;1.77;;
41253;SDS011;26987;59.928;30.306;2023-07-13T11:06:04;5.93;;;1.95;;
41253;SDS011;26987;59.928;30.306;2023-07-13T11:08:37;7.20;;;1.27;;
41253;SDS011;26987;59.928;30.306;2023-07-13T11:14:02;8.55;;;1.48;;
41253;SDS011;26987;59.928;30.306;2023-07-13T11:16:35;6.03;;;1.30;;
41253;SDS011;26987;59.928;30.306;2023-07-13T11:22:11;2.13;;;1.33;;
41253;SDS011;26987;59.928;30.306;2023-07-13T11:24:48;2.95;;;1.50;;
41253;SDS011;26987;59.928;30.306;2023-07-13T11:27:38;4.50;;;1.42;;
41253;SDS011;26987;59.928;30.306;2023-07-13T11:30:22;3.17;;;1.50;;
41253;SDS011;26987;59.928;30.306;2023-07-13T11:33:03;3.92;;;2.17;;
41253;SDS011;26987;59.928;30.306;2023-07-13T11:35:42;4.63;;;2.53;;
41253;SDS011;26987;59.928;30.306;2023-07-13T11:38:17;6.75;;;2.75;;
41253;SDS011;26987;59.928;30.306;2023-07-13T11:40:48;11.73;;;2.25;;
41253;SDS011;26987;59.928;30.306;2023-07-13T11:43:18;5.20;;;2.28;;
41253;SDS011;26987;59.928;30.306;2023-07-13T11:45:49;9.50;;;2.03;;
41253;SDS011;26987;59.928;30.306;2023-07-13T11:48:18;7.38;;;2.67;;
41253;SDS011;26987;59.928;30.306;2023-07-13T11:50:53;10.38;;;2.20;;
41253;SDS011;26987;59.928;30.306;2023-07-13T11:53:26;14.65;;;2.30;;
41253;SDS011;26987;59.928;30.306;2023-07-13T11:55:56;7.18;;;1.85;;
41253;SDS011;26987;59.928;30.306;2023-07-13T11:58:25;4.00;;;1.80;;
41253;SDS011;26987;59.928;30.306;2023-07-13T12:00:55;8.27;;;2.30;;
41253;SDS011;26987;59.928;30.306;2023-07-13T12:03:27;20.33;;;3.38;;
41253;SDS011;26987;59.928;30.306;2023-07-13T12:05:58;6.22;;;2.58;;
41253;SDS011;26987;59.928;30.306;2023-07-13T12:08:27;13.35;;;2.75;;
41253;SDS011;26987;59.928;30.306;2023-07-13T12:10:56;7.93;;;2.38;;
41253;SDS011;26987;59.928;30.306;2023-07-13T12:13:25;8.73;;;2.10;;
41253;SDS011;26987;59.928;30.306;2023-07-13T12:15:55;6.60;;;2.55;;
41253;SDS011;26987;59.928;30.306;2023-07-13T12:18:29;5.25;;;2.20;;
41253;SDS011;26987;59.928;30.306;2023-07-13T12:21:01;5.72;;;2.30;;
41253;SDS011;26987;59.928;30.306;2023-07-13T12:23:30;12.10;;;2.30;;
41253;SDS011;26987;59.928;30.306;2023-07-13T12:26:01;5.20;;;2.58;;
41253;SDS011;26987;59.928;30.306;2023-07-13T12:28:32;6.30;;;2.40;;
41253;SDS011;26987;59.928;30.306;2023-07-13T12:31:01;2.85;;;2.08;;
41253;SDS011;26987;59.928;30.306;2023-07-13T12:33:31;3.28;;;2.10;;
41253;SDS011;26987;59.928;30.306;2023-07-13T12:36:02;10.73;;;2.22;;
41253;SDS011;26987;59.928;30.306;2023-07-13T12:38:33;13.70;;;2.40;;
41253;SDS011;26987;59.928;30.306;2023-07-13T12:41:01;4.70;;;2.05;;
41253;SDS011;26987;59.928;30.306;2023-07-13T12:43:32;7.95;;;2.60;;
41253;SDS011;26987;59.928;30.306;2023-07-13T12:46:05;4.05;;;2.20;;
41253;SDS011;26987;59.928;30.306;2023-07-13T12:48:47;4.35;;;1.88;;
41253;SDS011;26987;59.928;30.306;2023-07-13T12:51:20;6.60;;;2.17;;
41253;SDS011;26987;59.928;30.306;2023-07-13T12:53:51;6.00;;;2.33;;
41253;SDS011;26987;59.928;30.306;2023-07-13T12:56:26;5.15;;;2.35;;
41253;SDS011;26987;59.928;30.306;2023-07-13T12:58:57;4.35;;;2.22;;
41253;SDS011;26987;59.928;30.306;2023-07-13T13:01:28;10.50;;;2.13;;
41253;SDS011;26987;59.928;30.306;2023-07-13T13:04:00;4.18;;;2.28;;
41253;SDS011;26987;59.928;30.306;2023-07-13T13:06:34;4.47;;;1.88;;
41253;SDS011;26987;59.928;30.306;2023-07-13T13:09:03;7.38;;;1.98;;
41253;SDS011;26987;59.928;30.306;2023-07-13T13:11:36;2.97;;;1.80;;
41253;SDS011;26987;59.928;30.306;2023-07-13T13:14:05;3.65;;;2.03;;
41253;SDS011;26987;59.928;30.306;2023-07-13T13:16:35;5.68;;;1.88;;
41253;SDS011;26987;59.928;30.306;2023-07-13T13:19:15;6.70;;;2.03;;
41253;SDS011;26987;59.928;30.306;2023-07-13T13:21:47;5.50;;;2.30;;
41253;SDS011;26987;59.928;30.306;2023-07-13T13:24:19;7.13;;;2.05;;
41253;SDS011;26987;59.928;30.306;2023-07-13T13:26:49;5.95;;;2.33;;
41253;SDS011;26987;59.928;30.306;2023-07-13T13:29:19;5.72;;;1.88;;
41253;SDS011;26987;59.928;30.306;2023-07-13T13:31:50;2.97;;;1.65;;
41253;SDS011;26987;59.928;30.306;2023-07-13T13:34:18;6.63;;;2.20;;
41253;SDS011;26987;59.928;30.306;2023-07-13T13:36:50;9.55;;;1.98;;
41253;SDS011;26987;59.928;30.306;2023-07-13T13:39:20;4.20;;;1.77;;
41253;SDS011;26987;59.928;30.306;2023-07-13T13:41:50;5.25;;;1.88;;
41253;SDS011;26987;59.928;30.306;2023-07-13T13:44:20;8.15;;;2.45;;
41253;SDS011;26987;59.928;30.306;2023-07-13T13:46:50;4.68;;;1.85;;
41253;SDS011;26987;59.928;30.306;2023-07-13T13:49:21;5.57;;;2.63;;
41253;SDS011;26987;59.928;30.306;2023-07-13T13:51:52;11.50;;;1.73;;
41253;SDS011;26987;59.928;30.306;2023-07-13T13:54:22;6.13;;;2.03;;
41253;SDS011;26987;59.928;30.306;2023-07-13T13:56:51;9.02;;;1.90;;
41253;SDS011;26987;59.928;30.306;2023-07-13T13:59:20;11.63;;;2.90;;
41253;SDS011;26987;59.928;30.306;2023-07-13T14:01:48;4.75;;;1.80;;
41253;SDS011;26987;59.928;30.306;2023-07-13T14:04:17;3.97;;;2.10;;
41253;SDS011;26987;59.928;30.306;2023-07-13T14:06:46;4.65;;;1.75;;
41253;SDS011;26987;59.928;30.306;2023-07-13T14:09:16;5.78;;;1.75;;
41253;SDS011;26987;59.928;30.306;2023-07-13T14:11:45;2.85;;;1.65;;
41253;SDS011;26987;59.928;30.306;2023-07-13T14:14:16;7.28;;;1.60;;
41253;SDS011;26987;59.928;30.306;2023-07-13T14:16:45;5.45;;;1.50;;
41253;SDS011;26987;59.928;30.306;2023-07-13T14:19:19;2.55;;;1.70;;
41253;SDS011;26987;59.928;30.306;2023-07-13T14:21:47;6.40;;;1.95;;
41253;SDS011;26987;59.928;30.306;2023-07-13T14:24:20;4.65;;;1.70;;
41253;SDS011;26987;59.928;30.306;2023-07-13T14:26:48;4.80;;;1.70;;
41253;SDS011;26987;59.928;30.306;2023-07-13T14:29:17;2.95;;;1.35;;
41253;SDS011;26987;59.928;30.306;2023-07-13T14:31:48;4.53;;;1.60;;
41253;SDS011;26987;59.928;30.306;2023-07-13T14:34:15;6.78;;;1.80;;
41253;SDS011;26987;59.928;30.306;2023-07-13T14:36:44;2.60;;;2.10;;
41253;SDS011;26987;59.928;30.306;2023-07-13T14:39:16;2.78;;;1.55;;
41253;SDS011;26987;59.928;30.306;2023-07-13T14:41:49;5.22;;;1.80;;
41253;SDS011;26987;59.928;30.306;2023-07-13T14:44:19;5.32;;;2.10;;
41253;SDS011;26987;59.928;30.306;2023-07-13T14:46:49;3.55;;;1.55;;
41253;SDS011;26987;59.928;30.306;2023-07-13T14:49:21;4.85;;;1.60;;
41253;SDS011;26987;59.928;30.306;2023-07-13T14:51:54;2.90;;;1.30;;
41253;SDS011;26987;59.928;30.306;2023-07-13T14:54:23;4.00;;;1.70;;
41253;SDS011;26987;59.928;30.306;2023-07-13T14:56:53;10.07;;;2.05;;
41253;SDS011;26987;59.928;30.306;2023-07-13T14:59:20;5.80;;;1.83;;